KJDD

Wood County Airport

Mineola/Quitman, Texas, USA
METAR KJDD 171355Z AUTO 00000KT 10SM CLR 05/04 A3025 RMK AO2
Observed Flight Rules
Dec-17 @ 13:55 UTC (33 minutes ago) Visual Flight Rules
Visibility Clouds
10 miles
  • Clear skies
Temperatures Readings
Current 5°C / 41°F
Dewpoint 4°C / 39°F
Humidity 93%
Altimeter 30.25" Hg
Pressure 1024 hPa
Elevation 132
METAR KJDD 171355Z AUTO 00000KT 10SM CLR 05/04 A3025 RMK AO2
Observed Flight Rules
Dec-17 @ 13:55 UTC
(33 minutes ago)
VFR
Clouds
  • Clear skies
Temperature Dewpoint
5°C / 41°F 4°C / 39°F
Humidity Altimeter Pressure
93% 30.25" Hg 1024 hPa